ZJI weather

Locarno Airport
Locarno, Canton of Ticino, Switzerland

Public forecast

Using degrees Celsius for public forecast. Weather courtesy of forecast.io.

Current aviation weather report (METAR) for Locarno Airport

Retrieved 2020/08/04 02:20 UTC (16 minutes ago):

LSZL 040220Z AUTO 08005KT 020V160 9999NDV BKN100 18/10 Q1005 RMK

Closest aviation forecast (TAF) to Locarno Airport

Closest forecast is Malpensa International Airport, 32.4 nm (60.1 km) S. Retrieved 2020-08-04 00:00 UTC (3 hours ago):

TAF LIMC 032300Z 0400/0506 VRB05KT 9999 BKN040 TEMPO 0400/0406 RA